Time;durP1;ratioP1;P1;durP2;ratioP2;P2;SDS_P1;SDS_P2;PMS_P1;PMS_P2;Temp;Humidity;BMP_temperature;BMP_pressure;BME280_temperature;BME280_humidity;BME280_pressure;Samples;Min_cycle;Max_cycle;Signal;HPM_P1;HPM_P2
2023/06/05 00:00:34;;;;;;;3.95;2.50;;;17.00;86.30;;;;;;2088695;28;20033;-71
2023/06/05 00:01:35;;;;;;;3.20;2.17;;;17.00;87.10;;;;;;2089689;28;20067;-71
2023/06/05 00:02:35;;;;;;;5.50;2.33;;;16.90;85.90;;;;;;2091394;28;20021;-71
2023/06/05 00:03:37;;;;;;;5.30;2.25;;;16.90;86.30;;;;;;2092309;28;20045;-71
2023/06/05 00:04:39;;;;;;;3.85;2.38;;;16.90;86.60;;;;;;2090507;28;20024;-71
2023/06/05 00:05:39;;;;;;;3.50;2.05;;;16.90;88.00;;;;;;2090046;28;20021;-71
2023/06/05 00:06:40;;;;;;;3.97;2.20;;;16.90;88.80;;;;;;2091513;28;20021;-71
2023/06/05 00:07:41;;;;;;;3.55;1.95;;;16.90;88.40;;;;;;2092442;28;20023;-71
2023/06/05 00:08:42;;;;;;;4.05;2.30;;;16.80;87.00;;;;;;2091589;28;20441;-71
2023/06/05 00:09:42;;;;;;;3.53;2.30;;;16.80;87.50;;;;;;2091484;28;20492;-71
2023/06/05 00:10:43;;;;;;;4.10;1.80;;;16.80;89.30;;;;;;2089229;28;20381;-71
2023/06/05 00:11:43;;;;;;;5.35;2.15;;;16.80;87.70;;;;;;2090729;28;20025;-70
2023/06/05 00:12:44;;;;;;;7.15;2.75;;;16.80;89.90;;;;;;2089268;28;20029;-71
2023/06/05 00:13:45;;;;;;;4.35;2.60;;;16.80;91.00;;;;;;2090374;28;20040;-71
2023/06/05 00:14:46;;;;;;;5.88;2.20;;;16.80;90.80;;;;;;2091502;28;20021;-71
2023/06/05 00:15:47;;;;;;;5.60;2.45;;;16.70;91.20;;;;;;2090668;28;20029;-71
2023/06/05 00:16:50;;;;;;;3.53;1.88;;;16.70;90.20;;;;;;2093391;28;20024;-71
2023/06/05 00:17:50;;;;;;;5.40;2.78;;;16.70;88.20;;;;;;2092854;28;20016;-71
2023/06/05 00:18:51;;;;;;;2.90;2.05;;;16.70;90.30;;;;;;2090077;28;20100;-71
2023/06/05 00:19:51;;;;;;;3.50;2.25;;;16.70;90.30;;;;;;2090927;28;20025;-71
2023/06/05 00:20:52;;;;;;;3.13;1.85;;;16.60;90.60;;;;;;2091920;28;20043;-71
2023/06/05 00:21:52;;;;;;;6.20;2.58;;;16.60;89.70;;;;;;2090486;28;20051;-71
2023/06/05 00:22:54;;;;;;;4.03;2.67;;;16.60;88.60;;;;;;2091968;28;20024;-71
2023/06/05 00:23:55;;;;;;;6.30;3.03;;;16.60;90.50;;;;;;2091693;28;20025;-71
2023/06/05 00:24:56;;;;;;;4.95;2.45;;;16.60;91.50;;;;;;2093688;28;20512;-71
2023/06/05 00:25:57;;;;;;;3.72;2.30;;;16.60;92.10;;;;;;2094508;28;20535;-71
2023/06/05 00:26:58;;;;;;;5.32;2.20;;;16.60;92.00;;;;;;2089117;28;20492;-71
2023/06/05 00:27:58;;;;;;;5.82;1.80;;;16.60;91.60;;;;;;2092861;28;20024;-71
2023/06/05 00:28:59;;;;;;;6.00;2.28;;;16.60;90.30;;;;;;2095914;28;20434;-71
2023/06/05 00:29:59;;;;;;;5.13;2.42;;;16.50;90.40;;;;;;2090535;28;20461;-71
2023/06/05 00:31:01;;;;;;;5.82;2.30;;;16.60;91.20;;;;;;2092488;28;20095;-71
2023/06/05 00:32:01;;;;;;;3.25;2.22;;;16.60;90.90;;;;;;2091863;28;20028;-71
2023/06/05 00:33:02;;;;;;;2.97;2.63;;;16.50;91.60;;;;;;2088931;28;20024;-71
2023/06/05 00:34:02;;;;;;;3.22;2.40;;;16.50;91.70;;;;;;2090434;28;20091;-71
2023/06/05 00:35:03;;;;;;;5.10;2.38;;;16.50;91.30;;;;;;2091033;28;20075;-71
2023/06/05 00:36:04;;;;;;;4.05;2.53;;;16.50;91.80;;;;;;2091883;28;20103;-71
2023/06/05 00:37:06;;;;;;;2.88;2.22;;;16.50;92.50;;;;;;2090889;28;20039;-71
2023/06/05 00:38:07;;;;;;;6.20;2.60;;;16.40;92.50;;;;;;2091874;28;20027;-71
2023/06/05 00:39:08;;;;;;;5.05;2.53;;;16.50;91.60;;;;;;2092719;28;20035;-71
2023/06/05 00:40:09;;;;;;;4.35;2.50;;;16.40;92.40;;;;;;2089391;28;20029;-71
2023/06/05 00:41:09;;;;;;;4.43;3.00;;;16.40;91.60;;;;;;2091291;28;20032;-71
2023/06/05 00:42:10;;;;;;;4.22;2.60;;;16.40;92.30;;;;;;2091351;28;20017;-71
2023/06/05 00:43:11;;;;;;;3.90;2.33;;;16.40;91.80;;;;;;2089985;28;20089;-71
2023/06/05 00:44:11;;;;;;;4.78;2.65;;;16.40;93.30;;;;;;2091397;28;20032;-71
2023/06/05 00:45:12;;;;;;;6.15;2.58;;;16.40;93.50;;;;;;2091340;28;20024;-71
2023/06/05 00:46:13;;;;;;;4.22;1.95;;;16.30;93.40;;;;;;2091712;28;20036;-71
2023/06/05 00:47:14;;;;;;;4.88;2.13;;;16.30;92.40;;;;;;2090317;28;20020;-71
2023/06/05 00:48:15;;;;;;;3.10;2.33;;;16.30;92.90;;;;;;2091287;28;20090;-71
2023/06/05 00:49:16;;;;;;;3.17;2.13;;;16.30;92.20;;;;;;2089700;28;20021;-71
2023/06/05 00:50:17;;;;;;;3.15;2.30;;;16.30;92.90;;;;;;2092354;28;20095;-71
2023/06/05 00:51:18;;;;;;;4.47;1.83;;;16.30;91.90;;;;;;2091757;28;20025;-71
2023/06/05 00:52:19;;;;;;;5.57;1.73;;;16.30;92.60;;;;;;2091445;28;20033;-71
2023/06/05 00:53:20;;;;;;;3.58;2.60;;;16.20;91.30;;;;;;2091798;28;20623;-71
2023/06/05 00:54:22;;;;;;;4.78;2.30;;;16.30;92.30;;;;;;2094784;28;20105;-71
2023/06/05 00:55:23;;;;;;;3.70;2.22;;;16.20;92.60;;;;;;2096045;28;20012;-71
2023/06/05 00:56:23;;;;;;;5.13;2.63;;;16.20;94.40;;;;;;2092028;28;20100;-71
2023/06/05 00:57:26;;;;;;;7.32;2.63;;;16.20;95.20;;;;;;2091470;28;20532;-71
2023/06/05 00:58:29;;;;;;;2.72;2.17;;;16.20;95.50;;;;;;2091365;28;20115;-71
2023/06/05 00:59:31;;;;;;;4.00;2.10;;;16.10;95.80;;;;;;2091001;28;20021;-71
2023/06/05 01:00:33;;;;;;;4.55;2.20;;;16.20;94.60;;;;;;2102199;28;20046;-71
2023/06/05 01:01:36;;;;;;;4.53;2.55;;;16.10;95.60;;;;;;2093945;28;20048;-71
2023/06/05 01:02:37;;;;;;;5.57;2.42;;;16.10;95.80;;;;;;2090863;28;20024;-71
2023/06/05 01:03:39;;;;;;;7.97;3.35;;;16.10;95.80;;;;;;2089638;28;20017;-71
2023/06/05 01:04:43;;;;;;;5.63;2.75;;;16.10;96.30;;;;;;2092911;28;20070;-71
2023/06/05 01:05:47;;;;;;;3.97;2.70;;;16.00;97.10;;;;;;2092027;28;20100;-71
2023/06/05 01:06:50;;;;;;;7.75;3.20;;;16.00;97.80;;;;;;2093992;28;20036;-71
2023/06/05 01:07:51;;;;;;;4.65;2.20;;;16.00;98.00;;;;;;2095161;28;20553;-71
2023/06/05 01:08:52;;;;;;;4.38;2.63;;;16.00;98.40;;;;;;2090883;28;20272;-71
2023/06/05 01:09:53;;;;;;;5.18;2.78;;;16.00;98.50;;;;;;2093380;28;20016;-71
2023/06/05 01:10:57;;;;;;;3.42;2.17;;;15.90;98.70;;;;;;2094266;28;20198;-71
2023/06/05 01:12:17;;;;;;;4.88;2.55;;;15.90;99.70;;;;;;2092917;28;20028;-71
2023/06/05 01:13:24;;;;;;;5.32;2.58;;;15.90;99.90;;;;;;2090877;28;20048;-71
2023/06/05 01:14:30;;;;;;;6.60;2.22;;;15.80;99.90;;;;;;2093382;28;20040;-71
2023/06/05 01:15:33;;;;;;;6.40;2.90;;;15.80;99.90;;;;;;2093916;28;20393;-71
2023/06/05 01:16:34;;;;;;;4.72;2.30;;;15.80;99.90;;;;;;2092624;28;21456;-71
2023/06/05 01:17:35;;;;;;;2.92;2.25;;;15.80;99.90;;;;;;2091786;28;20393;-71
2023/06/05 01:18:40;;;;;;;3.35;2.60;;;15.80;99.90;;;;;;2089722;28;20036;-70
2023/06/05 01:19:43;;;;;;;6.10;2.65;;;15.70;99.90;;;;;;2088532;28;20104;-71
2023/06/05 01:20:43;;;;;;;4.97;2.83;;;15.70;99.90;;;;;;2083369;28;20118;-71
2023/06/05 01:21:44;;;;;;;6.22;2.50;;;15.70;99.90;;;;;;2093525;28;20589;-71
2023/06/05 01:22:49;;;;;;;3.42;2.58;;;15.70;99.90;;;;;;2091177;28;20017;-71
2023/06/05 01:23:53;;;;;;;6.38;2.95;;;15.70;99.90;;;;;;2091674;28;20028;-71
2023/06/05 01:24:53;;;;;;;2.22;2.10;;;15.70;99.90;;;;;;2091149;28;20016;-71
2023/06/05 01:26:00;;;;;;;4.00;2.40;;;15.70;99.90;;;;;;2092881;28;20020;-71
2023/06/05 01:27:18;;;;;;;3.78;2.15;;;15.70;99.90;;;;;;2092284;28;20063;-71
2023/06/05 01:28:25;;;;;;;3.75;2.80;;;15.60;99.50;;;;;;2091121;28;20036;-71
2023/06/05 01:29:58;;;;;;;3.92;2.20;;;15.60;99.90;;;;;;2090956;28;20019;-71
2023/06/05 01:31:07;;;;;;;4.40;2.33;;;15.60;99.90;;;;;;2092209;28;22171;-71
2023/06/05 01:32:24;;;;;;;2.80;2.17;;;15.60;99.90;;;;;;2091127;28;20480;-71
2023/06/05 01:33:31;;;;;;;5.18;2.40;;;15.60;99.90;;;;;;2093204;28;20028;-71
2023/06/05 01:34:33;;;;;;;6.38;2.53;;;15.60;99.90;;;;;;2094181;28;20112;-71
2023/06/05 01:35:35;;;;;;;3.65;2.90;;;15.50;99.90;;;;;;2091076;28;20017;-71
2023/06/05 01:36:36;;;;;;;4.38;2.28;;;15.60;99.90;;;;;;2092602;28;20361;-71
2023/06/05 01:37:46;;;;;;;3.38;2.50;;;15.50;99.90;;;;;;2094054;28;20591;-71
2023/06/05 01:38:48;;;;;;;4.63;3.23;;;15.50;99.90;;;;;;2085428;28;20021;-71
2023/06/05 01:39:51;;;;;;;3.97;2.33;;;15.50;99.90;;;;;;2092822;28;20337;-71
2023/06/05 01:40:52;;;;;;;5.50;2.42;;;15.50;99.90;;;;;;2092615;28;20021;-71
2023/06/05 01:41:57;;;;;;;3.20;2.60;;;15.50;99.90;;;;;;2094808;28;20051;-71
2023/06/05 01:43:00;;;;;;;6.07;2.28;;;15.50;99.90;;;;;;2094786;28;20064;-71
2023/06/05 01:44:01;;;;;;;5.28;2.38;;;15.40;99.90;;;;;;2090986;28;20388;-71
2023/06/05 01:45:03;;;;;;;4.78;2.88;;;15.40;99.90;;;;;;2090693;28;20498;-71
2023/06/05 01:46:07;;;;;;;5.88;2.80;;;15.40;99.90;;;;;;2091190;28;20056;-71
2023/06/05 01:47:08;;;;;;;3.10;2.65;;;15.40;99.90;;;;;;2092049;28;20028;-71
2023/06/05 01:48:12;;;;;;;5.57;3.13;;;15.40;99.90;;;;;;2094936;28;20581;-71
2023/06/05 01:49:13;;;;;;;7.75;2.97;;;15.40;99.90;;;;;;2093182;28;20029;-71
2023/06/05 01:50:14;;;;;;;5.75;3.17;;;15.30;99.90;;;;;;2092879;28;20553;-71
2023/06/05 01:51:14;;;;;;;3.63;2.40;;;15.30;99.90;;;;;;2090635;28;20400;-71
2023/06/05 01:52:15;;;;;;;4.05;2.67;;;15.30;99.90;;;;;;2091801;28;20040;-71
2023/06/05 01:53:16;;;;;;;3.50;2.90;;;15.30;99.90;;;;;;2093532;28;20122;-71
2023/06/05 01:54:18;;;;;;;3.83;2.65;;;15.30;99.90;;;;;;2092095;28;20503;-71
2023/06/05 01:55:23;;;;;;;4.82;2.42;;;15.30;99.90;;;;;;2093915;28;20028;-71
2023/06/05 01:56:24;;;;;;;4.43;2.85;;;15.30;99.90;;;;;;2093325;28;20099;-71
2023/06/05 01:57:28;;;;;;;5.50;2.78;;;15.30;99.90;;;;;;2092619;28;20107;-71
2023/06/05 01:58:29;;;;;;;4.88;3.03;;;15.30;99.90;;;;;;2091597;28;20025;-71
2023/06/05 01:59:29;;;;;;;4.80;2.60;;;15.30;99.90;;;;;;2091227;28;20071;-71
2023/06/05 02:00:30;;;;;;;4.93;2.53;;;15.20;99.90;;;;;;2091975;28;20040;-71
2023/06/05 02:01:30;;;;;;;9.25;3.30;;;15.20;99.90;;;;;;2091878;28;20056;-71
2023/06/05 02:02:31;;;;;;;5.35;3.03;;;15.20;99.90;;;;;;2091618;28;20024;-71
2023/06/05 02:03:32;;;;;;;6.45;2.55;;;15.20;99.90;;;;;;2089503;28;20030;-71
2023/06/05 02:04:32;;;;;;;3.88;2.60;;;15.20;99.90;;;;;;2092388;28;20096;-71
2023/06/05 02:05:33;;;;;;;5.55;2.60;;;15.20;99.90;;;;;;2092285;28;20075;-71
2023/06/05 02:06:43;;;;;;;4.40;2.50;;;15.20;99.90;;;;;;2091164;28;20021;-71
2023/06/05 02:07:53;;;;;;;6.32;2.95;;;15.20;99.90;;;;;;2092372;28;20115;-71
2023/06/05 02:08:53;;;;;;;7.40;3.45;;;15.10;99.90;;;;;;2090310;28;20020;-71
2023/06/05 02:09:55;;;;;;;6.65;3.10;;;15.10;99.90;;;;;;2093283;28;20067;-71
2023/06/05 02:10:55;;;;;;;4.93;2.90;;;15.10;99.90;;;;;;2092389;28;20025;-71
2023/06/05 02:11:56;;;;;;;4.22;2.55;;;15.10;99.90;;;;;;2091205;28;20059;-71
2023/06/05 02:12:57;;;;;;;5.15;3.30;;;15.10;99.90;;;;;;2093678;28;20055;-71
2023/06/05 02:13:59;;;;;;;7.45;3.28;;;15.10;99.90;;;;;;2092190;28;20070;-71
2023/06/05 02:15:00;;;;;;;4.68;2.47;;;15.00;99.90;;;;;;2093125;28;20427;-71
2023/06/05 02:16:02;;;;;;;4.63;2.95;;;15.00;99.90;;;;;;2090346;28;20370;-71
2023/06/05 02:17:06;;;;;;;5.45;2.90;;;15.00;99.90;;;;;;2091831;28;20116;-71
2023/06/05 02:18:07;;;;;;;3.00;2.65;;;15.00;99.90;;;;;;2091966;28;20067;-71
2023/06/05 02:19:08;;;;;;;4.60;2.65;;;15.00;99.90;;;;;;2092438;28;20028;-71
2023/06/05 02:20:10;;;;;;;4.85;2.83;;;15.00;99.90;;;;;;2090024;28;20060;-71
2023/06/05 02:21:14;;;;;;;3.85;2.40;;;15.00;99.90;;;;;;2092010;28;20122;-71
2023/06/05 02:22:15;;;;;;;6.50;2.70;;;15.00;99.90;;;;;;2092584;28;20095;-71
2023/06/05 02:23:17;;;;;;;5.30;2.90;;;15.00;99.90;;;;;;2088907;28;20024;-71
2023/06/05 02:24:20;;;;;;;3.25;2.42;;;15.00;99.90;;;;;;2094113;28;20025;-71
2023/06/05 02:25:25;;;;;;;3.58;2.38;;;14.90;99.90;;;;;;2091742;28;20590;-71
2023/06/05 02:26:27;;;;;;;5.43;2.28;;;14.90;99.90;;;;;;2090590;28;20032;-71
2023/06/05 02:27:27;;;;;;;6.82;3.10;;;14.90;99.90;;;;;;2092057;28;20029;-71
2023/06/05 02:28:28;;;;;;;7.38;3.38;;;14.90;99.90;;;;;;2091900;28;20107;-71
2023/06/05 02:29:28;;;;;;;4.68;2.75;;;14.90;99.90;;;;;;2091771;28;20468;-71
2023/06/05 02:30:29;;;;;;;4.18;3.28;;;14.90;99.90;;;;;;2092236;28;20017;-71
2023/06/05 02:31:30;;;;;;;5.43;3.17;;;14.90;99.90;;;;;;2092037;28;20023;-71
2023/06/05 02:32:31;;;;;;;6.38;3.40;;;14.80;99.90;;;;;;2094800;28;20095;-71
2023/06/05 02:33:31;;;;;;;6.97;3.50;;;14.80;99.90;;;;;;2092391;28;20040;-71
2023/06/05 02:34:32;;;;;;;5.45;3.20;;;14.80;99.90;;;;;;2090442;28;20024;-71
2023/06/05 02:35:33;;;;;;;4.45;2.75;;;14.80;99.90;;;;;;2092345;28;20036;-71
2023/06/05 02:36:35;;;;;;;8.27;3.45;;;14.80;99.90;;;;;;2092145;28;20027;-71
2023/06/05 02:37:43;;;;;;;5.07;3.50;;;14.70;99.90;;;;;;2089697;28;20066;-71
2023/06/05 02:38:44;;;;;;;4.35;3.10;;;14.70;99.90;;;;;;2092090;28;20020;-71
2023/06/05 02:39:45;;;;;;;4.25;3.15;;;14.70;99.90;;;;;;2091386;28;20075;-71
2023/06/05 02:40:45;;;;;;;4.35;2.60;;;14.70;99.90;;;;;;2092310;28;20028;-71
2023/06/05 02:41:46;;;;;;;4.00;3.22;;;14.70;99.90;;;;;;2091535;28;20029;-71
2023/06/05 02:42:46;;;;;;;3.88;3.10;;;14.70;99.90;;;;;;2089363;28;20027;-71
2023/06/05 02:43:47;;;;;;;3.72;2.75;;;14.70;99.90;;;;;;2094415;28;20017;-71
2023/06/05 02:44:48;;;;;;;10.13;3.40;;;14.60;99.90;;;;;;2092547;28;20077;-71
2023/06/05 02:45:49;;;;;;;5.82;3.50;;;14.60;99.90;;;;;;2091795;28;20056;-71
2023/06/05 02:46:49;;;;;;;5.88;3.45;;;14.60;99.90;;;;;;2093026;28;20074;-71
2023/06/05 02:47:50;;;;;;;5.57;3.40;;;14.60;99.90;;;;;;2092941;28;20032;-71
2023/06/05 02:48:51;;;;;;;4.75;3.00;;;14.60;99.90;;;;;;2091291;28;20031;-71
2023/06/05 02:49:52;;;;;;;4.13;3.53;;;14.60;99.90;;;;;;2092361;28;20016;-71
2023/06/05 02:50:52;;;;;;;3.67;3.10;;;14.60;99.90;;;;;;2091192;28;20025;-71
2023/06/05 02:51:53;;;;;;;5.80;2.97;;;14.50;99.90;;;;;;2092729;28;20414;-71
2023/06/05 02:52:53;;;;;;;4.40;2.67;;;14.50;99.90;;;;;;2092081;28;20029;-71
2023/06/05 02:53:54;;;;;;;4.75;2.60;;;14.50;99.90;;;;;;2090367;28;20115;-71
2023/06/05 02:54:55;;;;;;;3.83;2.90;;;14.50;99.90;;;;;;2093235;28;20027;-71
2023/06/05 02:55:59;;;;;;;4.32;2.83;;;14.50;99.90;;;;;;2090568;28;20033;-71
2023/06/05 02:57:00;;;;;;;4.38;3.15;;;14.50;99.90;;;;;;2092588;28;20831;-71
2023/06/05 02:58:00;;;;;;;5.97;3.38;;;14.50;99.90;;;;;;2094921;28;20488;-71
2023/06/05 02:59:02;;;;;;;6.20;3.13;;;14.40;99.90;;;;;;2086936;28;20412;-71
2023/06/05 03:00:07;;;;;;;4.93;3.15;;;14.40;99.90;;;;;;2089772;28;20025;-71
2023/06/05 03:01:08;;;;;;;5.38;2.97;;;14.40;99.90;;;;;;2092392;28;20017;-71
2023/06/05 03:02:09;;;;;;;7.53;3.65;;;14.40;99.90;;;;;;2092781;28;20060;-71
2023/06/05 03:03:16;;;;;;;6.07;3.15;;;14.40;99.90;;;;;;2092211;28;20448;-71
2023/06/05 03:04:21;;;;;;;7.05;4.07;;;14.40;99.90;;;;;;2092677;28;20028;-71
2023/06/05 03:05:24;;;;;;;4.75;3.30;;;14.40;99.90;;;;;;2090003;28;20027;-71
2023/06/05 03:06:27;;;;;;;5.13;3.03;;;14.40;99.90;;;;;;2088704;28;20023;-71
2023/06/05 03:07:29;;;;;;;6.47;3.45;;;14.40;99.90;;;;;;2091143;28;20025;-71
2023/06/05 03:08:32;;;;;;;5.72;3.33;;;14.40;99.90;;;;;;2092592;28;20020;-71
2023/06/05 03:09:33;;;;;;;5.10;3.03;;;14.30;99.90;;;;;;2094696;28;20028;-71
2023/06/05 03:10:33;;;;;;;4.63;3.47;;;14.30;99.90;;;;;;2094971;28;20112;-71
2023/06/05 03:11:34;;;;;;;7.22;4.15;;;14.30;99.90;;;;;;2093099;28;20028;-71
2023/06/05 03:12:34;;;;;;;7.28;4.00;;;14.30;99.90;;;;;;2092036;28;20036;-71
2023/06/05 03:13:35;;;;;;;5.57;3.25;;;14.30;99.90;;;;;;2093674;28;20692;-71
2023/06/05 03:14:35;;;;;;;6.35;3.78;;;14.30;99.90;;;;;;2092218;28;20029;-71
2023/06/05 03:15:36;;;;;;;5.75;3.33;;;14.30;99.90;;;;;;2091358;28;20025;-71
2023/06/05 03:16:43;;;;;;;3.90;3.35;;;14.30;99.90;;;;;;2091386;28;20029;-71
2023/06/05 03:17:44;;;;;;;6.00;4.07;;;14.20;99.90;;;;;;2091942;28;20024;-71
2023/06/05 03:18:48;;;;;;;5.70;3.33;;;14.30;99.90;;;;;;2093174;28;20036;-71
2023/06/05 03:19:48;;;;;;;3.42;3.03;;;14.30;99.90;;;;;;2090860;28;20368;-71
2023/06/05 03:20:55;;;;;;;3.60;3.30;;;14.20;99.90;;;;;;2091883;28;20037;-71
2023/06/05 03:21:56;;;;;;;5.18;3.35;;;14.20;99.90;;;;;;2090212;28;20032;-71
2023/06/05 03:22:56;;;;;;;5.25;3.78;;;14.20;99.90;;;;;;2089008;28;20102;-71
2023/06/05 03:23:57;;;;;;;5.95;3.20;;;14.20;99.90;;;;;;2094356;28;20024;-71
2023/06/05 03:24:57;;;;;;;5.82;3.67;;;14.20;99.90;;;;;;2095395;28;20141;-71
2023/06/05 03:25:58;;;;;;;5.25;3.38;;;14.20;99.90;;;;;;2094000;28;20028;-71
2023/06/05 03:26:58;;;;;;;5.95;3.95;;;14.20;99.90;;;;;;2092293;28;20077;-71
2023/06/05 03:27:59;;;;;;;6.28;2.83;;;14.20;99.90;;;;;;2090056;28;20028;-71
2023/06/05 03:29:00;;;;;;;4.57;4.05;;;14.20;99.90;;;;;;2091635;28;20380;-71
2023/06/05 03:30:01;;;;;;;4.40;3.30;;;14.10;99.90;;;;;;2099957;28;20012;-71
2023/06/05 03:31:02;;;;;;;3.50;2.65;;;14.20;99.90;;;;;;2091049;28;20027;-71
2023/06/05 03:32:02;;;;;;;6.88;3.17;;;14.20;99.90;;;;;;2090029;28;20044;-71
2023/06/05 03:33:04;;;;;;;4.30;3.08;;;14.20;99.90;;;;;;2093786;28;20369;-71
2023/06/05 03:34:06;;;;;;;5.40;3.22;;;14.20;99.90;;;;;;2094125;28;20028;-71
2023/06/05 03:35:07;;;;;;;4.20;3.60;;;14.10;99.90;;;;;;2091819;28;20149;-71
2023/06/05 03:36:08;;;;;;;4.97;3.55;;;14.10;99.90;;;;;;2091253;28;20028;-71
2023/06/05 03:37:08;;;;;;;4.05;2.72;;;14.10;99.90;;;;;;2091312;28;20098;-71
2023/06/05 03:38:09;;;;;;;5.97;3.47;;;14.10;99.90;;;;;;2091160;28;20024;-71
2023/06/05 03:39:11;;;;;;;6.60;3.35;;;14.10;99.90;;;;;;2090222;28;20047;-71
2023/06/05 03:40:12;;;;;;;6.82;3.13;;;14.10;99.90;;;;;;2089386;28;20429;-71
2023/06/05 03:41:12;;;;;;;3.85;2.90;;;14.10;99.90;;;;;;2090064;28;20047;-71
2023/06/05 03:42:13;;;;;;;5.22;3.30;;;14.10;99.90;;;;;;2088797;28;20017;-71
2023/06/05 03:43:13;;;;;;;6.00;3.45;;;14.10;99.90;;;;;;2089601;28;20074;-71
2023/06/05 03:44:14;;;;;;;4.63;3.20;;;14.10;99.90;;;;;;2091612;28;20020;-71
2023/06/05 03:45:15;;;;;;;4.63;3.03;;;14.10;99.90;;;;;;2091147;28;20021;-71
2023/06/05 03:46:18;;;;;;;4.85;3.00;;;14.00;99.90;;;;;;2091559;28;20755;-71
2023/06/05 03:47:20;;;;;;;4.07;2.80;;;14.10;99.90;;;;;;2096990;28;20542;-71
2023/06/05 03:48:21;;;;;;;4.45;2.90;;;14.10;99.90;;;;;;2094300;28;20036;-71
2023/06/05 03:49:22;;;;;;;6.53;3.78;;;14.00;99.90;;;;;;2090740;28;20108;-71
2023/06/05 03:50:23;;;;;;;5.38;3.45;;;14.00;99.90;;;;;;2090508;28;20025;-71
2023/06/05 03:51:29;;;;;;;5.43;3.78;;;14.00;99.90;;;;;;2092767;28;20429;-71
2023/06/05 03:52:30;;;;;;;4.65;3.08;;;14.00;99.90;;;;;;2096353;28;20059;-71
2023/06/05 03:53:30;;;;;;;4.57;3.55;;;14.00;99.90;;;;;;2090304;28;20025;-71
2023/06/05 03:54:33;;;;;;;4.70;2.95;;;14.00;99.90;;;;;;2089826;28;20025;-71
2023/06/05 03:55:45;;;;;;;4.63;3.00;;;14.00;99.90;;;;;;2090696;28;20127;-71
2023/06/05 03:56:49;;;;;;;3.92;2.80;;;14.00;99.90;;;;;;2089670;28;20024;-71
2023/06/05 03:57:51;;;;;;;5.28;3.38;;;14.00;99.90;;;;;;2089408;28;20365;-71
2023/06/05 03:58:51;;;;;;;4.38;3.83;;;14.00;99.90;;;;;;2089456;28;20064;-71
2023/06/05 03:59:52;;;;;;;5.35;3.78;;;14.10;99.90;;;;;;2092153;28;20024;-71
2023/06/05 04:00:53;;;;;;;6.25;4.00;;;14.10;99.90;;;;;;2092718;28;20056;-71
2023/06/05 04:01:56;;;;;;;3.90;3.10;;;14.10;99.90;;;;;;2088578;28;20074;-71
2023/06/05 04:02:58;;;;;;;5.40;3.92;;;14.10;99.90;;;;;;2092444;28;20021;-71
2023/06/05 04:03:58;;;;;;;5.93;4.40;;;14.20;99.90;;;;;;2092962;28;20102;-71
2023/06/05 04:05:00;;;;;;;5.03;3.92;;;14.20;99.90;;;;;;2092728;28;20028;-71
2023/06/05 04:06:02;;;;;;;5.65;4.13;;;14.20;99.90;;;;;;2089931;28;20096;-71
2023/06/05 04:07:02;;;;;;;4.50;3.80;;;14.30;99.90;;;;;;2094591;28;20023;-71
2023/06/05 04:08:03;;;;;;;5.13;4.00;;;14.30;99.90;;;;;;2089917;28;20108;-71
2023/06/05 04:09:13;;;;;;;4.60;3.97;;;14.40;99.90;;;;;;2091329;28;20028;-71
2023/06/05 04:10:13;;;;;;;5.13;4.38;;;14.40;99.90;;;;;;2090913;28;20048;-71
2023/06/05 04:11:14;;;;;;;4.78;3.80;;;14.50;99.90;;;;;;2089826;28;20017;-71
2023/06/05 04:12:14;;;;;;;7.55;4.82;;;14.50;99.90;;;;;;2090198;28;20050;-71
2023/06/05 04:13:15;;;;;;;5.97;4.28;;;14.60;99.90;;;;;;2091094;28;20051;-71
2023/06/05 04:14:15;;;;;;;6.95;3.85;;;14.70;99.90;;;;;;2090921;28;20032;-71
2023/06/05 04:15:16;;;;;;;4.80;4.22;;;14.70;99.90;;;;;;2088398;28;20033;-71
2023/06/05 04:16:16;;;;;;;8.20;4.28;;;14.80;99.90;;;;;;2092015;28;20061;-71
2023/06/05 04:17:17;;;;;;;6.00;4.72;;;14.90;99.90;;;;;;2091925;28;20029;-71
2023/06/05 04:18:17;;;;;;;6.03;4.78;;;15.00;99.90;;;;;;2091966;28;20049;-71
2023/06/05 04:19:18;;;;;;;6.25;5.15;;;15.10;99.90;;;;;;2090769;28;20621;-71
2023/06/05 04:20:19;;;;;;;6.65;4.63;;;15.20;99.90;;;;;;2090400;28;20040;-71
2023/06/05 04:21:19;;;;;;;5.13;4.60;;;15.30;99.90;;;;;;2089524;28;20032;-71
2023/06/05 04:22:20;;;;;;;6.20;4.80;;;15.40;99.90;;;;;;2089754;28;20020;-71
2023/06/05 04:23:22;;;;;;;5.70;4.97;;;15.50;99.90;;;;;;2091044;28;20020;-71
2023/06/05 04:24:25;;;;;;;8.93;5.18;;;15.60;99.90;;;;;;2090588;28;20017;-71
2023/06/05 04:25:28;;;;;;;8.90;5.55;;;15.60;99.90;;;;;;2090869;28;20109;-71
2023/06/05 04:26:29;;;;;;;5.55;4.95;;;15.70;99.90;;;;;;2094494;28;20062;-71
2023/06/05 04:27:30;;;;;;;8.60;4.95;;;15.70;99.90;;;;;;2094503;28;20023;-71
2023/06/05 04:28:31;;;;;;;6.22;5.47;;;15.70;99.90;;;;;;2092126;28;20027;-71
2023/06/05 04:29:32;;;;;;;7.55;5.60;;;15.70;99.90;;;;;;2088180;28;20029;-71
2023/06/05 04:30:33;;;;;;;7.53;4.90;;;15.70;99.90;;;;;;2089783;28;20103;-71
2023/06/05 04:31:34;;;;;;;6.35;4.90;;;15.60;99.90;;;;;;2091315;28;20036;-71
2023/06/05 04:32:37;;;;;;;6.50;5.80;;;15.60;99.90;;;;;;2090646;28;20388;-71
2023/06/05 04:33:38;;;;;;;8.15;5.78;;;15.50;99.90;;;;;;2089972;28;20094;-71
2023/06/05 04:34:38;;;;;;;9.15;5.82;;;15.60;99.90;;;;;;2092511;28;20102;-71
2023/06/05 04:35:39;;;;;;;8.25;6.20;;;15.50;99.90;;;;;;2090794;28;20078;-71
2023/06/05 04:36:40;;;;;;;6.10;4.60;;;15.50;99.90;;;;;;2091383;28;20111;-71
2023/06/05 04:37:41;;;;;;;7.40;4.35;;;15.50;99.90;;;;;;2093487;28;20033;-71
2023/06/05 04:38:42;;;;;;;6.57;5.85;;;15.50;99.90;;;;;;2092941;28;20052;-71
2023/06/05 04:39:43;;;;;;;7.80;5.00;;;15.50;99.90;;;;;;2091385;28;20092;-71
2023/06/05 04:40:48;;;;;;;9.23;5.60;;;15.50;99.90;;;;;;2091986;28;20728;-71
2023/06/05 04:41:48;;;;;;;5.90;4.88;;;15.50;99.90;;;;;;2095273;28;20025;-71
2023/06/05 04:42:49;;;;;;;8.07;5.78;;;15.50;99.90;;;;;;2096152;28;20028;-71
2023/06/05 04:43:50;;;;;;;7.32;5.70;;;15.50;99.90;;;;;;2092398;28;20024;-71
2023/06/05 04:44:57;;;;;;;9.45;5.32;;;15.50;99.90;;;;;;2091777;28;20497;-71
2023/06/05 04:46:00;;;;;;;6.35;5.55;;;15.50;99.90;;;;;;2093746;28;20056;-71
2023/06/05 04:47:01;;;;;;;7.82;5.85;;;15.50;99.90;;;;;;2091733;28;20013;-71
2023/06/05 04:48:01;;;;;;;6.47;5.15;;;15.60;99.90;;;;;;2092685;28;20025;-71
2023/06/05 04:49:02;;;;;;;5.57;5.03;;;15.70;99.90;;;;;;2094785;28;20599;-71
2023/06/05 04:50:06;;;;;;;7.60;5.20;;;15.70;99.90;;;;;;2094451;28;20052;-71
2023/06/05 04:51:07;;;;;;;7.85;5.13;;;15.70;99.90;;;;;;2093836;28;20058;-71
2023/06/05 04:52:07;;;;;;;6.45;5.40;;;15.80;99.90;;;;;;2092741;28;20457;-71
2023/06/05 04:53:08;;;;;;;8.13;4.60;;;15.80;99.90;;;;;;2093541;28;20075;-71
2023/06/05 04:54:09;;;;;;;7.95;5.43;;;15.80;99.90;;;;;;2095035;28;20556;-71
2023/06/05 04:55:09;;;;;;;7.82;5.35;;;15.80;99.90;;;;;;2091369;28;20031;-71
2023/06/05 04:56:10;;;;;;;6.68;5.03;;;15.90;99.90;;;;;;2092370;28;20025;-71
2023/06/05 04:57:11;;;;;;;5.47;4.97;;;15.90;99.90;;;;;;2092169;28;20107;-71
2023/06/05 04:58:11;;;;;;;6.40;5.38;;;15.90;99.90;;;;;;2093350;28;20047;-71
2023/06/05 04:59:12;;;;;;;6.25;4.88;;;15.90;99.90;;;;;;2093461;28;20028;-71
2023/06/05 05:00:14;;;;;;;7.95;5.10;;;15.90;99.90;;;;;;2084452;28;20572;-71
2023/06/05 05:01:16;;;;;;;6.97;4.63;;;15.90;99.90;;;;;;2093107;28;20105;-71
2023/06/05 05:02:16;;;;;;;6.90;5.05;;;16.00;99.90;;;;;;2092695;28;20462;-71
2023/06/05 05:03:17;;;;;;;5.85;5.35;;;16.00;99.90;;;;;;2085960;28;20044;-71
2023/06/05 05:04:18;;;;;;;5.38;4.82;;;16.00;99.90;;;;;;2092546;28;20361;-71
2023/06/05 05:05:19;;;;;;;5.53;5.03;;;16.00;99.90;;;;;;2092193;28;20476;-71
2023/06/05 05:06:21;;;;;;;5.93;4.85;;;16.10;99.90;;;;;;2095051;28;20021;-71
2023/06/05 05:07:22;;;;;;;6.03;5.25;;;16.10;99.90;;;;;;2092903;28;20388;-71
2023/06/05 05:08:22;;;;;;;7.50;4.95;;;16.10;99.90;;;;;;2093874;28;20017;-71
2023/06/05 05:09:23;;;;;;;6.07;5.47;;;16.20;99.90;;;;;;2092773;28;20017;-71
2023/06/05 05:10:24;;;;;;;9.70;5.43;;;16.20;99.90;;;;;;2092670;28;20037;-71
2023/06/05 05:11:24;;;;;;;7.60;5.30;;;16.20;99.90;;;;;;2093261;28;20017;-71
2023/06/05 05:12:25;;;;;;;7.40;5.10;;;16.20;99.90;;;;;;2095006;28;20427;-71
2023/06/05 05:13:25;;;;;;;6.65;5.13;;;16.20;99.90;;;;;;2095826;28;20155;-71
2023/06/05 05:14:29;;;;;;;6.72;5.38;;;16.30;99.90;;;;;;2092695;28;20029;-71
2023/06/05 05:15:29;;;;;;;6.10;5.07;;;16.40;99.90;;;;;;2091872;28;20068;-71
2023/06/05 05:16:30;;;;;;;8.00;5.15;;;16.40;99.90;;;;;;2091205;28;20021;-71
2023/06/05 05:17:31;;;;;;;7.50;5.68;;;16.50;99.90;;;;;;2092167;28;20031;-71
2023/06/05 05:18:31;;;;;;;7.00;5.65;;;16.50;99.90;;;;;;2091506;28;20025;-71
2023/06/05 05:19:32;;;;;;;7.90;5.43;;;16.50;99.90;;;;;;2094111;28;20025;-71
2023/06/05 05:20:34;;;;;;;6.60;4.88;;;16.60;99.90;;;;;;2091094;28;20098;-71
2023/06/05 05:21:36;;;;;;;5.72;5.22;;;16.70;99.90;;;;;;2092093;28;20021;-71
2023/06/05 05:22:37;;;;;;;8.88;5.35;;;16.70;99.90;;;;;;2090585;28;20027;-71